Thiago Rivera

Recruteur en chef - River Plate
20 Févr 2028
Dimanche
Processus

Personnalité

Adaptabilité (1) Ambition (11) Controverse (3) Loyauté (20) Pression (6) Professionnalisme (13) Sportivité (12) Tempérament (4)

Profil

Style d'entraînement Démocratique
Diplôme National A
Détermination 6
Gestion des joueurs 5
Motivation 6
Discipline 12
Satisfaction professionnelle
100%
Fatigue
0%
Rôle Recruteur en chef
Salaire 72.2K p/s
Contrat 14.03.2028

Performance

Comportement Bon
Efficacité de l'entraînement
35%
Développement des joueurs
25%
Prévention des blessures
45%
Mise en place tactique
30%

Événements récents

Négociation de contrat entamée maintenant
A participé à une réunion de recrutement maintenant
A recommandé une cible de transfert maintenant
Négociation de contrat entamée maintenant
Négociation de contrat entamée maintenant
Négociation de contrat entamée maintenant
A évalué un joueur 7j
Négociation de contrat entamée 7j

Suivi en cours

294
Joueur Club Statut Capacité Confiance Observé Dernière observation Dernier vote
Darryl Bakola Padova Actif 109 / 120 40% 2 12.02.2028 -
Jeremiah Berkeley-Agyepong Gzira United Actif 70 / 89 40% 1 12.02.2028 -
Ronan Kpakio Cardiff City Actif 136 / 115 40% 2 10.02.2028 -
Giovanni Leoni Bradford City Actif 126 / 154 40% 1 10.02.2028 -
Joel McGregor Swindon Town Actif 83 / 108 40% 2 08.02.2028 -
Izan Merino Málaga Actif 119 / 120 40% 1 08.02.2028 -
Avery Appiah Ajax Actif 131 / 113 40% 3 07.02.2028 -
Hamad Šaćirović Novi Pazar Actif 80 / 88 40% 1 07.02.2028 -
Felipe Obradovich Ferro Carril Oeste Actif 106 / 118 40% 1 04.01.2028 -
José Correa Deportivo Tachira Actif 83 / 100 40% 1 03.01.2028 -
David Veliz Güemes Actif 115 / 103 40% 4 21.12.2027 -
Fernando Bersano Madryn Actif 108 / 108 40% 1 21.12.2027 -
Geovani Atenas Actif 87 / 107 55% 1 13.12.2027 -
Nahuel Galardi Maipú Négociation 119 / 114 40% 1 13.12.2027 -
Joaquín Papaleo Gimnasia y Tiro Actif 111 / 102 40% 1 13.12.2027 -
Esteban Rodríguez Uruguay Montevideo Actif 99 / 96 55% 1 01.12.2027 -
Olivier Mambwa Young Boys Actif 126 / 124 40% 1 01.12.2027 -
Juan Rocca Gimnasia y Tiro Actif 109 / 102 40% 4 30.11.2027 -
Valentín Serrano Arsenal Actif 112 / 113 40% 2 30.11.2027 -
José Mercado Union Magdalena Actif 117 / 115 40% 2 29.11.2027 -
Gonzalo Abrego Godoy Cruz Actif 115 / 125 40% 2 29.11.2027 -
Sebastián Medina Tigre Actif 131 / 127 40% 5 27.11.2027 -
Ramón González Almirante Brown Actif 110 / 108 40% 1 27.11.2027 -
Augusto Berrondo Tristán Suárez Actif 108 / 109 40% 1 26.11.2027 -
Alejo Cruz Juventud Actif 118 / 111 40% 2 25.11.2027 -
Iñaki Larthirigoyen San Telmo Actif 111 / 121 40% 1 25.11.2027 -
Federico Versaci Talleres Actif 113 / 105 40% 2 24.11.2027 -
Tomás Ferreyra Defensores Unidos Actif 108 / 121 40% 2 22.11.2027 -
Alan Lescano Argentinos Juniors Actif 137 / 139 40% 3 19.11.2027 -
Francisco Maidana Gimnasia y Esgrima Actif 114 / 115 40% 1 18.11.2027 -
Delvin Alfonzo Deportivo Tachira Actif 109 / 115 40% 1 17.11.2027 -
Matías Bergara Nueva Chicago Actif 116 / 122 40% 2 16.11.2027 -
Alexis Steimbach Gimnasia La Plata Actif 124 / 116 40% 1 16.11.2027 -
Santiago Sala Güemes Actif 122 / 120 40% 2 15.11.2027 -
Tomás Porra Barracas Central Actif 112 / 112 40% 1 14.11.2027 -
Facundo Altamira Godoy Cruz Actif 129 / 125 40% 1 14.11.2027 -
Samuel Lucero Defensa y Justicia Actif 117 / 114 40% 1 13.11.2027 -
Valentin Pereyra Patronato Actif 103 / 111 40% 1 13.11.2027 -
Caleb Yirenkyi Coventry City Actif 129 / 138 40% 2 11.11.2027 -
Godwin Oham Warri Wolves Actif 102 / 100 40% 1 11.11.2027 -
Ramiro Hernandes Belgrano Actif 123 / 122 40% 1 09.11.2027 -
Johan Campaña Patriotas Actif 102 / 106 40% 1 09.11.2027 -
Edwin Echeverría Atletico Nacional Actif 85 / 100 40% 1 09.11.2027 -
Antonio Galeano Remo Stars Actif 135 / 141 40% 3 06.11.2027 -
Ángelo Lucena Carabobo Actif 107 / 101 40% 2 05.11.2027 -
Tomás O'Connor Gimnasia y Esgrima Actif 125 / 134 40% 1 05.11.2027 -
Gastón Moreyra Almirante Brown Actif 114 / 115 40% 3 04.11.2027 -
Abduljeleel Abdulateef Odd Actif 99 / 116 40% 1 04.11.2027 -
Kevin Angulo America de Cali Actif 106 / 111 40% 1 04.11.2027 -
Alexander Díaz Deportivo Riestra Actif 125 / 114 40% 3 03.11.2027 -
Enzo Silcan Almagro Actif 103 / 109 40% 2 03.11.2027 -
Lautaro Villegas Banfield Actif 119 / 108 40% 2 01.11.2027 -
Santiago Espíndola River Plate Actif 109 / 116 40% 1 01.11.2027 -
Óscar Hinojosa Metropolitanos Actif 87 / 91 40% 1 01.11.2027 -
Juan Pablo Barinaga Patronato Actif 123 / 113 40% 2 30.10.2027 -
Joaquín Gho Argentinos Juniors Actif 117 / 134 40% 2 29.10.2027 -
Franco Nicola Liverpool Montevideo Actif 112 / 111 40% 2 29.10.2027 -
Alan Cisnero Shukura Actif 84 / 105 40% 1 26.10.2027 -
Maximiliano Meléndez Chacarita Juniors Actif 112 / 116 40% 1 26.10.2027 -
Ramiro Jara Racing Actif 80 / 85 40% 1 25.10.2027 -
Matías Acevedo Racing Club Actif 113 / 117 40% 2 20.10.2027 -
Zak Lovelace Crewe Alexandra Actif 99 / 108 40% 1 20.10.2027 -
Maren Kefas Plateau United Actif 88 / 87 40% 1 17.10.2027 -
Manuel Duarte Barracas Central Actif 132 / 114 40% 1 17.10.2027 -
Cristian Ramirez Llaneros Actif 108 / 112 40% 1 17.10.2027 -
Tiago Gordillo San Miguel Actif 81 / 95 40% 1 17.10.2027 -
Tobias Moi Bodo/Glimt Actif 109 / 117 40% 1 17.10.2027 -
Gabriel Otero Llaneros Actif 108 / 102 40% 1 15.10.2027 -
Facundo Martínez Montevideo City Torque Actif 92 / 99 40% 2 10.10.2027 -
Amaury Morales Pumas UNAM Actif 109 / 127 40% 1 10.10.2027 -
Tyrique George Everton Actif 128 / 122 40% 1 09.10.2027 -
Franco Benítez Temperley Actif 113 / 107 40% 1 07.10.2027 -
Igor Tyjon Doncaster Rovers Actif 107 / 119 40% 1 07.10.2027 -
Christian Silva Santiago Wanderers Actif 80 / 91 40% 1 07.10.2027 -
Maico Quiroz Güemes Actif 112 / 123 40% 1 04.10.2027 -
Juan Bisanz Huracán Actif 134 / 124 40% 1 04.10.2027 -
Dilan Godoy Vélez Actif 114 / 123 40% 1 03.10.2027 -
Rodhier Lezama Caracas Actif 80 / 95 40% 1 03.10.2027 -
Nahuel Olmedo Real Cartagena Actif 79 / 86 40% 1 01.10.2027 -
Edison Gruezo Leon Actif 97 / 121 40% 1 01.10.2027 -
Marvin Illary Helsingborg Actif 92 / 94 40% 1 30.09.2027 -
Jean Galindo Imotski Actif 92 / 87 40% 1 27.09.2027 -
Mikhail Alexandrov Dinamo Brest Actif 80 / 92 40% 1 27.09.2027 -
Andrés Monsalve Leones Actif 83 / 85 40% 1 26.09.2027 -
Juan Rodríguez Wanderers Actif 104 / 102 40% 1 26.09.2027 -
Miguel Marulanda Envigado Actif 80 / 106 40% 1 22.09.2027 -
Chineme Chinonso Ikorodu City Actif 107 / 105 40% 1 19.09.2027 -
Axel Pedrozo Almagro Actif 92 / 84 40% 1 19.09.2027 -
Beka Kiteishvili Zugdidi Actif 63 / 63 40% 1 18.09.2027 -
Timofey Simanenka Gomel Actif 102 / 96 40% 1 17.09.2027 -
Hervin Goyes Deportivo Pasto Actif 103 / 116 40% 1 15.09.2027 -
Alejandro Almaraz Nueva Chicago Actif 117 / 119 40% 1 15.09.2027 -
Facundo Rodríguez Talleres Actif 79 / 99 40% 1 15.09.2027 -
Gabriel Sánchez Rosario Central Actif 89 / 107 40% 1 15.09.2027 -
Mikkel Hope Haugesund Actif 106 / 97 40% 1 13.09.2027 -
Gabriel Moscardo Paris Saint-Germain Actif 145 / 124 40% 1 13.09.2027 -
Matías Machado Racing Actif 104 / 116 40% 1 12.09.2027 -
Agustín Obregón River Plate Actif 115 / 124 40% 1 12.09.2027 -
Olaniyi Saheed Kwara United Actif 83 / 102 40% 1 12.09.2027 -
Facundo Ardiles Estudiantes Actif 110 / 107 40% 1 10.09.2027 -
Juan Sebastián Herrera Deportivo La Guaira Actif 108 / 114 40% 1 09.09.2027 -
Nicolás Heiz Maipú Actif 112 / 115 40% 1 09.09.2027 -
Julián Cosi Madryn Actif 115 / 115 40% 1 08.09.2027 -
Jesús Vargas Metropolitanos Actif 105 / 109 40% 1 08.09.2027 -
Matías Magdaleno Estudiantes Actif 94 / 113 40% 1 08.09.2027 -
Federico Bonetto River Plate Actif 73 / 88 40% 1 08.09.2027 -
Lucas Velásquez Huachipato Actif 95 / 93 40% 1 07.09.2027 -
Aytor Herrera Zulia Actif 78 / 87 40% 1 07.09.2027 -
Yousef Salech Cardiff City Actif 138 / 135 40% 1 05.06.2027 -
Leandro Martins Benfica Actif 78 / 112 40% 1 02.06.2027 -
Dion Beljo Standard Liege Négociation 131 / 132 66% 1 01.06.2027 Approuver
Harry Leonard Peterborough United Actif 110 / 114 40% 1 31.05.2027 -
Kasey McAteer Ipswich Town Actif 136 / 139 40% 7 29.05.2027 -
Florentino Luís Ipswich Town Actif 159 / 149 40% 2 29.05.2027 Plus d'infos
Giorgi Chakvetadze Watford Actif 119 / 117 40% 3 28.05.2027 -
Cian Ashford Cardiff City Actif 106 / 114 40% 4 27.05.2027 -
Morgan Whittaker Middlesbrough Actif 139 / 136 40% 3 25.05.2027 -
Aaron Collins Milton Keynes Dons Actif 120 / 127 40% 1 25.05.2027 -
Shea Charles Southampton Actif 124 / 144 40% 2 24.05.2027 -
Finn Azaz Southampton Actif 148 / 124 40% 7 23.05.2027 -
Welington Southampton Actif 117 / 131 40% 3 23.05.2027 -
Paddy Lane Reading Actif 127 / 95 40% 1 23.05.2027 -
Ethan Williams Peterborough United Actif 103 / 113 40% 1 22.05.2027 -
Bosun Lawal Stoke City Actif 133 / 123 40% 1 21.05.2027 -
Jack Diamond Stockport County Actif 111 / 116 40% 5 19.05.2027 -
Tommy Conway Middlesbrough Actif 149 / 138 40% 2 19.05.2027 -
Stanley Mills Oxford United Actif 138 / 121 40% 3 16.05.2027 -
Ekain Orobengoa Real Sociedad Actif 100 / 109 40% 1 14.05.2027 -
Léo Scienza Southampton Actif 151 / 150 40% 2 13.05.2027 -
Kwadwo Baah Watford Actif 144 / 117 40% 1 12.05.2027 -
Pietro Reggiori Pro Patria Actif 102 / 110 40% 1 11.05.2027 -
Davide Bartesaghi AC Milan Actif 136 / 132 40% 1 11.05.2027 -
Bali Mumba Huddersfield Town Actif 107 / 128 40% 1 11.05.2027 -
Job Ochieng Real Sociedad Actif 102 / 107 40% 2 05.05.2027 -
Max Bird Birmingham Actif 114 / 122 40% 2 04.05.2027 -
Zeki Amdouni Burnley Actif 151 / 130 40% 1 04.05.2027 -
Azor Matusiwa Ipswich Town Actif 125 / 137 40% 1 02.05.2027 -
Daniel Kyerewaa Reading Actif 123 / 117 40% 2 01.05.2027 -
Romano Schmid Frosinone Actif 154 / 134 40% 2 01.05.2027 -
Ryoya Morishita Blackburn Rovers Actif 119 / 120 40% 1 26.04.2027 -
Derry Murkin Derby County Actif 109 / 115 40% 2 25.04.2027 -
Ronan Hale Gillingham Actif 112 / 99 40% 1 21.04.2027 -
Christ Inao Oulaï Fiorentina Actif 125 / 125 40% 1 21.04.2027 -
Christos Mouzakitis Hull City Actif 125 / 145 40% 2 19.04.2027 -
Tyrese Campbell Sheffield United Actif 136 / 121 40% 3 17.04.2027 -
Tom Fellows Southampton Actif 147 / 130 40% 4 16.04.2027 -
Mohamed Belloumi Hull City Actif 124 / 148 40% 1 15.04.2027 -
Juan Mosquera Sheffield Wednesday Actif 142 / 127 40% 1 14.04.2027 -
Josh Tymon Swansea City Actif 135 / 131 40% 2 13.04.2027 -
Sascha Britschgi Padova Actif 110 / 117 40% 1 10.04.2027 -
Chari Giwa US Bougouba Actif 60 / 70 40% 1 10.04.2027 -
Isaac Price West Bromwich Albion Actif 128 / 121 40% 2 07.04.2027 -
Ethan Galbraith Swansea City Actif 132 / 125 40% 3 05.04.2027 -
Alex Robertson Cardiff City Actif 106 / 111 40% 1 04.04.2027 -
Riley McGree Middlesbrough Actif 138 / 116 40% 1 01.04.2027 -
Toby Collyer West Bromwich Albion Actif 139 / 147 40% 1 01.04.2027 -
Alan Acosta MC El Bayadh Actif 113 / 103 40% 1 29.03.2027 -
Ollie Tanner Cardiff City Actif 116 / 121 40% 2 28.03.2027 -
Chem Campbell Stevenage Actif 100 / 108 40% 1 28.03.2027 -
Othmane Maamma Watford Actif 118 / 130 40% 1 28.03.2027 -
Richard Koné Queens Park Rangers Actif 137 / 118 40% 2 27.03.2027 -
Isaiah Jones Luton Town Actif 127 / 115 40% 1 27.03.2027 -
Jon Eceizabarrena Real Sociedad Actif 82 / 109 40% 1 25.03.2027 -
Jack Rudoni Coventry City Actif 134 / 130 40% 3 23.03.2027 -
Dávid Strelec Middlesbrough Actif 135 / 149 40% 1 17.03.2027 -
Alessio Zerbin Frosinone Actif 137 / 116 40% 1 17.03.2027 -
Joe Gelhardt Hull City Actif 147 / 144 40% 1 16.03.2027 -
Jason Knight Bristol City Actif 135 / 117 40% 1 13.03.2027 -
Iuri Tabatadze Cádiz Actif 129 / 125 40% 1 12.03.2027 -
Callum O'Hare Sheffield United Actif 112 / 123 40% 1 10.03.2027 -
Ilias Chair Queens Park Rangers Actif 146 / 131 40% 1 08.03.2027 -
David Turnbull Cardiff City Actif 110 / 115 40% 2 05.03.2027 -
Ilyas Ansah Hull City Actif 145 / 133 40% 1 04.03.2027 -
Mathias Jørgensen Blackburn Rovers Actif 120 / 120 40% 1 28.02.2027 -
Mikey Johnston West Bromwich Albion Actif 140 / 133 40% 1 24.02.2027 -
Georgie Gent Barnsley Actif 108 / 98 40% 1 24.02.2027 -
Ali Ahmed Norwich City Actif 111 / 110 40% 1 20.02.2027 -
Zian Flemming Ipswich Town Actif 141 / 132 40% 1 19.02.2027 -
Ronald Swansea City Actif 116 / 120 40% 2 18.02.2027 -
Sheyi Ojo Bradford City Actif 133 / 121 40% 1 16.02.2027 -
Tariq Lamptey Queens Park Rangers Actif 131 / 139 40% 1 15.02.2027 -
Mamadou Sangaré Brentford Actif 157 / 153 40% 1 15.02.2027 -
André Vidigal Asante Kotoko Actif 119 / 103 40% 1 12.02.2027 -
Nobel Mendy Hull City Actif 132 / 128 40% 1 12.02.2027 -
Nicolas Madsen Queens Park Rangers Actif 128 / 129 40% 1 12.02.2027 -
Eduardo Armenta Ufa Actif 104 / 104 40% 1 03.02.2027 -
Charlie Webster Burton Albion Actif 120 / 103 40% 1 03.02.2027 -
Lewis Bate Stockport County Actif 120 / 116 40% 1 03.02.2027 -
Ilir Krasniqi Polissia Actif 133 / 131 40% 1 03.02.2027 -
Suleiman Camara Slovan Bratislava Actif 141 / 133 40% 1 29.01.2027 -
Dominik Yankov Arda Actif 107 / 108 40% 1 28.01.2027 -
Brodie Spencer Oxford United Actif 105 / 140 40% 1 28.01.2027 -
Mark Sykes Millwall Actif 113 / 107 40% 1 23.01.2027 -
Aarón Molinas Defensa y Justicia Actif 138 / 124 40% 2 22.01.2027 -
Tyreece Campbell Charlton Athletic Actif 121 / 132 40% 1 21.01.2027 -
Leandro Romano Ismaily Actif 113 / 96 40% 1 18.01.2027 -
Atsuki Ito Bolton Wanderers Actif 112 / 123 40% 1 18.01.2027 -
Kwame Poku Queens Park Rangers Actif 102 / 117 40% 1 17.01.2027 -
Hakim Sulemana Medeama Actif 81 / 110 40% 1 17.01.2027 -
Kelly Saravanan Salford City Actif 126 / 108 40% 1 17.01.2027 -
Stephen Humphrys Bradford City Actif 129 / 121 40% 2 14.01.2027 -
Gaetano Castrovilli Cesena Actif 134 / 133 40% 1 14.01.2027 -
Stefano Olaya Ethnikos Achnas Actif 102 / 86 40% 1 14.01.2027 -
Xeber Alkain Karpaty Actif 115 / 129 40% 1 11.01.2027 -
Sonny Carey Charlton Athletic Actif 126 / 111 40% 1 07.01.2027 -
Lucas Souto Defensa y Justicia Actif 118 / 121 40% 2 05.01.2027 -
João Simões Sporting CP Actif 107 / 146 40% 1 23.12.2026 -
Jofre Torrents Ajax Actif 119 / 120 40% 1 23.12.2026 -
Evidence Makgopa Orlando Pirates Actif 106 / 125 40% 1 29.11.2026 -
Ignacio Rodríguez Racing Club Actif 119 / 126 40% 1 29.11.2026 -
Juergen Elitím Bohemians 1905 Actif 116 / 128 40% 1 28.11.2026 -
Tomás González Piast Actif 127 / 106 40% 3 26.11.2026 -
Morgan Guilavogui Real Salt Lake Actif 132 / 126 40% 2 26.11.2026 -
Vicente Poggi Godoy Cruz Actif 127 / 123 40% 1 26.11.2026 -
Marcus Browne AFC Wimbledon Actif 103 / 94 40% 1 25.11.2026 -
Santiago López García Banfield Actif 106 / 122 40% 2 23.11.2026 -
Rodrigo Bogarín Barracas Central Actif 129 / 126 40% 1 23.11.2026 -
Nicolás Cordero Aldosivi Actif 114 / 120 40% 4 21.11.2026 -
Santiago Rodríguez Gimnasia y Esgrima Actif 128 / 123 40% 4 21.11.2026 -
Ramiro Ruiz Rodríguez Atlético Tucumán Actif 115 / 121 40% 3 19.11.2026 -
Franco Zapiola Platense Actif 119 / 115 40% 2 19.11.2026 -
Brayan León Mamelodi Sundowns Actif 110 / 128 40% 1 19.11.2026 -
Adolfo Muñoz Ruch Actif 134 / 126 40% 2 17.11.2026 -
Misael Sosa Godoy Cruz Actif 115 / 116 40% 2 17.11.2026 -
Javier Martínez Almirante Brown Actif 110 / 100 40% 1 17.11.2026 -
Gonzalo Ríos Independiente Rivadavia Actif 130 / 111 40% 1 17.11.2026 -
Fernando Martínez Central Córdoba SdE Actif 128 / 111 40% 1 15.11.2026 -
Mauro Valiente Estudiantes Actif 102 / 111 40% 1 15.11.2026 -
Rilind Nivokazi Sion Actif 129 / 103 40% 1 12.11.2026 -
Mandla Mahlangu Ajax Cape Town Actif 86 / 107 40% 1 11.11.2026 -
Jonás Luna Santa Clara Actif 125 / 112 40% 2 10.11.2026 -
Jonás Acevedo Instituto Actif 120 / 121 40% 3 10.11.2026 -
Yuber Quiñónes Deportivo Pereira Actif 112 / 119 40% 2 09.11.2026 -
Gonzalo Flores Almirante Brown Actif 114 / 106 40% 2 09.11.2026 -
Mduduzi Shabalala Kaizer Chiefs Actif 131 / 113 40% 1 08.11.2026 -
Lucas Varaldo Central Córdoba SdE Actif 108 / 118 40% 1 06.11.2026 -
Themba Ngcobo SuperSport United Actif 100 / 108 40% 2 02.11.2026 -
Martín Campos Ferro Carril Oeste Actif 106 / 119 40% 1 31.10.2026 -
Juan Velázquez Belgrano Actif 110 / 120 40% 1 31.10.2026 -
Gianluca Pugliese Güemes Actif 106 / 120 40% 2 29.10.2026 -
Alex Vigo Independiente Rivadavia Actif 105 / 119 40% 1 29.10.2026 -
Lucas Arce CFR Cluj Actif 105 / 109 40% 1 29.10.2026 -
Víctor Ríos Atlas Actif 114 / 104 40% 1 26.10.2026 -
Peter Christiansen Viking Actif 144 / 104 40% 1 24.10.2026 -
Luca Martínez Dupuy Godoy Cruz Actif 106 / 128 40% 2 20.10.2026 -
Federico Bisanz Atlanta Actif 101 / 107 40% 1 20.10.2026 -
Giovanni Cantizano Rosario Central Actif 115 / 125 40% 1 20.10.2026 -
Matías Fernández Independiente Rivadavia Actif 125 / 130 40% 1 16.10.2026 -
Antony Alonso Deportivo Riestra Actif 135 / 121 40% 1 12.10.2026 -
Yeison Moreno Hajduk Split Actif 123 / 121 40% 1 12.10.2026 -
Marcelo Torres Gimnasia La Plata Actif 112 / 125 40% 3 08.10.2026 -
Jerónimo Porto Lapegüe San Telmo Actif 99 / 108 40% 1 08.10.2026 -
Agustín Gallo Tristán Suárez Actif 110 / 118 40% 1 29.09.2026 -
Rafael Navarro St. Louis CITY SC Actif 114 / 125 40% 2 28.09.2026 -
Sam Surridge Nashville SC Actif 128 / 141 40% 2 26.09.2026 -
João Klauss LA Galaxy Actif 127 / 120 40% 1 24.09.2026 -
Mauro Méndez Tigre Actif 108 / 114 40% 1 23.09.2026 -
Ayoub Jabbari FC Cincinnati Actif 95 / 100 40% 1 21.09.2026 -
Josh Sargent Toronto FC Actif 141 / 125 40% 1 19.09.2026 -
Victor Olatunji Real Salt Lake Actif 103 / 119 40% 1 19.09.2026 -
Adnan Courtois KV Oostende Actif 124 / 123 40% 1 18.09.2026 -
Kévin Denkey FC Cincinnati Actif 139 / 117 40% 1 17.09.2026 -
Ismael Díaz Leon Actif 133 / 116 40% 1 17.09.2026 -
Maximiliano Rodríguez Huachipato Actif 100 / 105 40% 1 16.09.2026 -
Adrián Parra Deportes Tolima Actif 110 / 110 40% 1 11.09.2026 -
Mourad Tijuana Actif 125 / 111 40% 2 10.09.2026 -
Jhonier Blanco Fortaleza CEIF Actif 115 / 108 40% 2 09.09.2026 -
José Alvarado Leon Actif 114 / 110 40% 1 09.09.2026 -
Ruyery Blanco Alianza Petrolera Actif 108 / 100 40% 1 07.09.2026 -
Jhojan Julio Queretaro Actif 122 / 122 40% 1 07.09.2026 -
Jesus Ferreira Seattle Sounders Actif 132 / 135 40% 1 04.09.2026 -
Jeremy Ebobisse Los Angeles Football Club Actif 128 / 110 40% 1 01.09.2026 -
Jonatan Torres Cerro Porteno Actif 107 / 128 40% 2 31.08.2026 -
Luis Iberico Sporting Cristal Actif 122 / 117 40% 1 31.08.2026 -
Michael Nike Patriotas Actif 116 / 100 40% 1 30.08.2026 -
Elias Manoel Tijuana Actif 119 / 112 40% 1 29.08.2026 -
Lewis Morgan SuperSport United Actif 105 / 140 40% 1 27.08.2026 -
José Balza Deportivo Tachira Actif 120 / 112 40% 1 24.08.2026 -
Luis Palacios Tigres Actif 104 / 102 40% 1 23.08.2026 -
Manuel Ospina Cortulua Actif 131 / 134 40% 1 22.08.2026 -
Cristian Núñez Huracán Actif 110 / 111 40% 1 19.08.2026 -
Adalberto Peñaranda Deportivo Tachira Actif 98 / 120 40% 1 15.08.2026 -
Diego Castillo Real Cartagena Actif 96 / 109 40% 1 15.08.2026 -
Duk Atlas Actif 109 / 108 40% 1 13.08.2026 -
Juan David Rueda Alianza Petrolera Actif 103 / 110 40% 1 12.08.2026 -
Marcos Camarda Santiago Wanderers Actif 92 / 113 40% 1 11.08.2026 -
Brayan Moreno Universidad de Chile Actif 97 / 119 40% 1 10.08.2026 -
Martín Ojeda Orlando City Actif 139 / 138 40% 1 09.08.2026 -
Thiago Perugini San Lorenzo Actif 106 / 103 40% 1 08.08.2026 -
Luis Pavez Muñoz O'Higgins Actif 120 / 124 40% 1 06.08.2026 -
Juan Camilo Pérez Carabobo Actif 117 / 121 40% 1 03.08.2026 -
Fabián Hormazábal Universidad de Chile Actif 122 / 121 40% 1 03.08.2026 -
Iván Arboleda Sarmiento Actif 113 / 114 40% 1 01.08.2026 -
Diego Campos Melgar Actif 105 / 116 40% 1 01.08.2026 -